Edith Kirk — 2DST9 — position and weather

sailwx.info

Track history (hours):
 
Tides and Currents Weather Stations Pressure Air Temp Water Temp Dewpoint Dewpoint Depression Visibility Wind Speed Wind Dir Waves Ship Positions

Edith Kirk

Last reported at 2014-Nov-22 09:25 UTC. Time now 2014-Nov-27 06:48 UTC.
Position N 43°49' E 034°42'.

Length 183 m; draft 7.5 m.

Type: Tanker. MMSI: 235081745.

Date/timePositionNaut miles runAvg speedWind from/ knotsBaromVisibWave heightAir tempDewpointWater temp
2014-Nov-22 09:25N 43°49' E 034°42'28511.4
2014-Nov-21 08:28N 41°21' E 029°11'294 6.5
2014-Nov-19 11:32N 37°57' E 024°36'1211.7
2014-Nov-19 10:33N 37°50' E 024°24'1211.6
2014-Nov-19 09:33N 37°42' E 024°14'1110.5
2014-Nov-19 08:28N 37°36' E 024°01'1312.2
2014-Nov-19 07:24N 37°37' E 023°45'1113.0
2014-Nov-19 06:33N 37°47' E 023°38'1313.3
2014-Nov-19 05:33N 37°51' E 023°22'1312.2
2014-Nov-19 04:28N 37°54' E 023°05'1 0.0
2014-Nov-17 15:25N 37°55' E 023°05'1 0.1
2014-Nov-17 04:20N 37°54' E 023°05'0 0.0
2014-Nov-17 02:32N 37°54' E 023°05'0 0.0
2014-Nov-17 01:32N 37°54' E 023°05'0 0.0
2014-Nov-17 00:32N 37°54' E 023°05'0 0.0
2014-Nov-16 23:32N 37°54' E 023°05'0 0.0
2014-Nov-16 22:32N 37°54' E 023°05'0 0.0
2014-Nov-16 21:29N 37°54' E 023°05'0 0.1
2014-Nov-16 20:32N 37°54' E 023°05'0 0.0
2014-Nov-16 19:32N 37°54' E 023°05'0 0.0
2014-Nov-16 18:11N 37°54' E 023°05'0 0.0
2014-Nov-16 07:08N 37°54' E 023°06'0 0.0
2014-Nov-16 06:08N 37°54' E 023°06'0 0.0
2014-Nov-16 05:32N 37°54' E 023°06'0 0.0
2014-Nov-15 23:31N 37°54' E 023°06'0 0.0
2014-Nov-15 22:22N 37°54' E 023°06'2 0.3
2014-Nov-15 17:21N 37°53' E 023°07'8 9.6
2014-Nov-15 16:33N 37°52' E 023°17'1313.1
2014-Nov-15 15:33N 37°50' E 023°33'1111.2
2014-Nov-15 14:33N 37°43' E 023°44'2110.5
2014-Nov-15 12:33N 37°40' E 024°10'1813.5
2014-Nov-15 11:13N 37°51' E 024°28'  
Track history (hours):
 
Tides and Currents Weather Stations Pressure Air Temp Water Temp Dewpoint Dewpoint Depression Visibility Wind Speed Wind Dir Waves Ship Positions

Edith Kirk

Last reported at 2014-Nov-22 09:25 UTC. Time now 2014-Nov-27 06:48 UTC.
Position N 43°49' E 034°42'.

Length 183 m; draft 7.5 m.

Type: Tanker. MMSI: 235081745.

Date/timePositionNaut miles runAvg speedWind from/ knotsBaromVisibWave heightAir tempDewpointWater temp
2014-Nov-22 09:25N 43°49' E 034°42'28511.4
2014-Nov-21 08:28N 41°21' E 029°11'294 6.5
2014-Nov-19 11:32N 37°57' E 024°36'1211.7
2014-Nov-19 10:33N 37°50' E 024°24'1211.6
2014-Nov-19 09:33N 37°42' E 024°14'1110.5
2014-Nov-19 08:28N 37°36' E 024°01'1312.2
2014-Nov-19 07:24N 37°37' E 023°45'1113.0
2014-Nov-19 06:33N 37°47' E 023°38'1313.3
2014-Nov-19 05:33N 37°51' E 023°22'1312.2
2014-Nov-19 04:28N 37°54' E 023°05'1 0.0
2014-Nov-17 15:25N 37°55' E 023°05'1 0.1
2014-Nov-17 04:20N 37°54' E 023°05'0 0.0
2014-Nov-17 02:32N 37°54' E 023°05'0 0.0
2014-Nov-17 01:32N 37°54' E 023°05'0 0.0
2014-Nov-17 00:32N 37°54' E 023°05'0 0.0
2014-Nov-16 23:32N 37°54' E 023°05'0 0.0
2014-Nov-16 22:32N 37°54' E 023°05'0 0.0
2014-Nov-16 21:29N 37°54' E 023°05'0 0.1
2014-Nov-16 20:32N 37°54' E 023°05'0 0.0
2014-Nov-16 19:32N 37°54' E 023°05'0 0.0
2014-Nov-16 18:11N 37°54' E 023°05'0 0.0
2014-Nov-16 07:08N 37°54' E 023°06'0 0.0
2014-Nov-16 06:08N 37°54' E 023°06'0 0.0
2014-Nov-16 05:32N 37°54' E 023°06'0 0.0
2014-Nov-15 23:31N 37°54' E 023°06'0 0.0
2014-Nov-15 22:22N 37°54' E 023°06'2 0.3
2014-Nov-15 17:21N 37°53' E 023°07'8 9.6
2014-Nov-15 16:33N 37°52' E 023°17'1313.1
2014-Nov-15 15:33N 37°50' E 023°33'1111.2
2014-Nov-15 14:33N 37°43' E 023°44'2110.5
2014-Nov-15 12:33N 37°40' E 024°10'1813.5
2014-Nov-15 11:13N 37°51' E 024°28'  

Dump ship's entire track history